G1 CYXU-CYXU
Flight info
| Callsign | G1 |
|---|---|
| Flight time | N/A |
| Altitude | 2000 |
| Route | CIRCUITS |
| Aircraft | F16 |
Departure
| Time | 2026-04-24 23:18 |
|---|---|
| Airport | London International Airport (CYXU) |
Arrival
| Time | N/A |
|---|---|
| Airport | London International Airport (CYXU) |
| Time | Latitude | Longitude | Altitude | Speed | Heading |
|---|---|---|---|---|---|
| 2026-04-24 23:11 | 43.03566 | -81.16272 | 907 ft | 0 kts | 73° |
| 2026-04-24 23:11 | 43.03570 | -81.16257 | 907 ft | 8 kts | 67° |
| 2026-04-24 23:12 | 43.03593 | -81.16250 | 908 ft | 0 kts | 358° |
| 2026-04-24 23:12 | 43.03660 | -81.16270 | 908 ft | 13 kts | 349° |
| 2026-04-24 23:12 | 43.03711 | -81.16283 | 907 ft | 0 kts | 349° |
| 2026-04-24 23:16 | 43.03717 | -81.16285 | 907 ft | 6 kts | 349° |
| 2026-04-24 23:17 | 43.03772 | -81.16294 | 907 ft | 11 kts | 359° |
| 2026-04-24 23:17 | 43.03825 | -81.16234 | 907 ft | 9 kts | 79° |
| 2026-04-24 23:17 | 43.03935 | -81.15419 | 932 ft | 185 kts | 81° |
| 2026-04-24 23:17 | 43.04307 | -81.13546 | 1117 ft | 210 kts | 58° |
| 2026-04-24 23:18 | 43.05550 | -81.12724 | 1340 ft | 221 kts | 346° |
| 2026-04-24 23:18 | 43.06398 | -81.14403 | 1414 ft | 234 kts | 258° |
| 2026-04-24 23:18 | 43.05922 | -81.16397 | 1771 ft | 203 kts | 246° |
| 2026-04-24 23:18 | 43.05468 | -81.18054 | 1982 ft | 175 kts | 245° |
| 2026-04-24 23:19 | 43.05002 | -81.19707 | 1991 ft | 198 kts | 246° |
| 2026-04-24 23:19 | 43.04485 | -81.21476 | 2141 ft | 202 kts | 246° |
| 2026-04-24 23:19 | 43.03962 | -81.23250 | 2336 ft | 201 kts | 245° |
| 2026-04-24 23:19 | 43.03484 | -81.25063 | 2421 ft | 207 kts | 248° |
| 2026-04-24 23:20 | 43.03040 | -81.26984 | 2433 ft | 215 kts | 250° |
| 2026-04-24 23:20 | 43.02586 | -81.28946 | 2452 ft | 224 kts | 249° |
| 2026-04-24 23:20 | 43.02106 | -81.31012 | 2445 ft | 231 kts | 250° |
| 2026-04-24 23:20 | 43.01613 | -81.33139 | 2449 ft | 238 kts | 250° |
| 2026-04-24 23:21 | 43.01171 | -81.35357 | 2452 ft | 244 kts | 249° |
| 2026-04-24 23:21 | 43.00007 | -81.36476 | 2058 ft | 220 kts | 154° |
| 2026-04-24 23:21 | 42.99115 | -81.34883 | 1735 ft | 215 kts | 114° |
| 2026-04-24 23:21 | 42.99020 | -81.33037 | 1715 ft | 207 kts | 60° |
| 2026-04-24 23:22 | 42.99797 | -81.31438 | 1797 ft | 195 kts | 60° |
| 2026-04-24 23:22 | 43.00528 | -81.29742 | 1589 ft | 236 kts | 68° |
| 2026-04-24 23:22 | 43.01048 | -81.27461 | 1613 ft | 261 kts | 75° |
| 2026-04-24 23:22 | 43.01550 | -81.25111 | 1880 ft | 239 kts | 76° |
| 2026-04-24 23:23 | 43.02128 | -81.23264 | 1983 ft | 189 kts | 67° |
| 2026-04-24 23:23 | 43.02680 | -81.21818 | 1839 ft | 166 kts | 64° |
| 2026-04-24 23:23 | 43.03150 | -81.20470 | 1596 ft | 151 kts | 74° |
| 2026-04-24 23:23 | 43.03427 | -81.18994 | 1278 ft | 165 kts | 81° |
| 2026-04-24 23:24 | 43.03673 | -81.17520 | 1073 ft | 153 kts | 81° |
| 2026-04-24 23:24 | 43.03845 | -81.16134 | 907 ft | 142 kts | 79° |
| 2026-04-24 23:24 | 43.04087 | -81.14515 | 1138 ft | 196 kts | 74° |
| 2026-04-24 23:24 | 43.05130 | -81.13577 | 1275 ft | 210 kts | 340° |
| 2026-04-24 23:25 | 43.05782 | -81.15156 | 1244 ft | 206 kts | 257° |
| 2026-04-24 23:25 | 43.05469 | -81.17144 | 1539 ft | 215 kts | 254° |
| 2026-04-24 23:25 | 43.05099 | -81.19104 | 1820 ft | 212 kts | 251° |
| 2026-04-24 23:25 | 43.04468 | -81.20793 | 1780 ft | 199 kts | 191° |
| 2026-04-24 23:26 | 43.03348 | -81.20051 | 1566 ft | 193 kts | 95° |
| 2026-04-24 23:26 | 43.03575 | -81.18163 | 1098 ft | 196 kts | 81° |
| 2026-04-24 23:26 | 43.03811 | -81.16519 | 920 ft | 170 kts | 81° |
| 2026-04-24 23:26 | 43.04035 | -81.14938 | 1079 ft | 164 kts | 81° |
| 2026-04-24 23:27 | 43.04264 | -81.13328 | 1266 ft | 187 kts | 89° |
| 2026-04-24 23:27 | 43.03861 | -81.11680 | 1302 ft | 194 kts | 133° |
| 2026-04-24 23:27 | 43.02612 | -81.11551 | 1304 ft | 210 kts | 224° |
| 2026-04-24 23:27 | 43.02326 | -81.13483 | 1277 ft | 222 kts | 273° |
| 2026-04-24 23:28 | 43.02461 | -81.15553 | 1592 ft | 214 kts | 275° |
| 2026-04-24 23:28 | 43.02587 | -81.17527 | 1988 ft | 202 kts | 261° |
| 2026-04-24 23:28 | 43.02350 | -81.19390 | 2190 ft | 195 kts | 255° |
| 2026-04-24 23:28 | 43.02006 | -81.21090 | 2272 ft | 183 kts | 245° |
| 2026-04-24 23:29 | 43.01646 | -81.22787 | 2297 ft | 193 kts | 267° |
| 2026-04-24 23:29 | 43.01415 | -81.24693 | 2101 ft | 214 kts | 238° |
| 2026-04-24 23:29 | 43.00352 | -81.25802 | 1774 ft | 192 kts | 174° |
| 2026-04-24 23:29 | 42.99308 | -81.24936 | 1532 ft | 188 kts | 99° |
| 2026-04-24 23:30 | 42.99860 | -81.23445 | 1403 ft | 190 kts | 26° |
| 2026-04-24 23:30 | 43.01107 | -81.23666 | 1272 ft | 196 kts | 311° |
| 2026-04-24 23:30 | 43.02134 | -81.24455 | 1150 ft | 175 kts | 39° |
| 2026-04-24 23:30 | 43.02573 | -81.23070 | 1241 ft | 163 kts | 85° |
| 2026-04-24 23:31 | 43.02649 | -81.21595 | 1226 ft | 167 kts | 88° |
| 2026-04-24 23:31 | 43.02905 | -81.20081 | 1221 ft | 147 kts | 61° |
| 2026-04-24 23:31 | 43.03435 | -81.18732 | 1213 ft | 157 kts | 69° |
| 2026-04-24 23:31 | 43.03081 | -81.17526 | 1549 ft | 215 kts | 171° |
| 2026-04-24 23:32 | 43.02008 | -81.18902 | 1474 ft | 248 kts | 253° |
| 2026-04-24 23:32 | 43.01588 | -81.21152 | 1811 ft | 242 kts | 253° |
| 2026-04-24 23:32 | 43.01424 | -81.23399 | 1893 ft | 241 kts | 296° |
| 2026-04-24 23:32 | 43.02724 | -81.24149 | 1846 ft | 216 kts | 36° |
| 2026-04-24 23:33 | 43.03379 | -81.22503 | 1627 ft | 204 kts | 90° |
| 2026-04-24 23:33 | 43.03357 | -81.20786 | 1423 ft | 170 kts | 92° |
| 2026-04-24 23:33 | 43.03445 | -81.19201 | 1168 ft | 173 kts | 82° |
| 2026-04-24 23:33 | 43.03658 | -81.17695 | 1022 ft | 153 kts | 81° |
| 2026-04-24 23:34 | 43.03828 | -81.16215 | 978 ft | 144 kts | 79° |
| 2026-04-24 23:34 | 43.04040 | -81.14901 | 954 ft | 167 kts | 81° |
| 2026-04-24 23:34 | 43.04262 | -81.13287 | 1181 ft | 175 kts | 81° |
| 2026-04-24 23:34 | 43.04483 | -81.11650 | 1397 ft | 176 kts | 82° |
| 2026-04-24 23:35 | 43.04556 | -81.09937 | 1657 ft | 184 kts | 107° |